sensor_id;sensor_type;location;lat;lon;timestamp;pressure;altitude;pressure_sealevel;temperature;humidity
71057;BME280;58380;48.312;9.246;2023-05-25T05:15:20;93853.94;;;9.21;85.04
71057;BME280;58380;48.312;9.246;2023-05-25T05:17:46;93862.88;;;9.42;84.75
71057;BME280;58380;48.312;9.246;2023-05-25T05:20:11;93884.94;;;9.58;83.93
71057;BME280;58380;48.312;9.246;2023-05-25T05:22:37;93875.97;;;9.54;83.29
71057;BME280;58380;48.312;9.246;2023-05-25T05:25:03;93890.84;;;9.65;83.57
71057;BME280;58380;48.312;9.246;2023-05-25T05:27:29;93881.41;;;9.69;84.11
71057;BME280;58380;48.312;9.246;2023-05-25T05:29:54;93860.56;;;9.68;85.24
71057;BME280;58380;48.312;9.246;2023-05-25T05:32:20;93788.31;;;9.42;84.94
71057;BME280;58380;48.312;9.246;2023-05-25T05:34:45;93809.97;;;9.44;86.58
71057;BME280;58380;48.312;9.246;2023-05-25T05:37:11;93873.31;;;9.76;87.52
71057;BME280;58380;48.312;9.246;2023-05-25T05:39:36;93871.81;;;9.85;89.96
71057;BME280;58380;48.312;9.246;2023-05-25T05:42:02;93879.94;;;9.79;88.40
71057;BME280;58380;48.312;9.246;2023-05-25T05:44:27;93895.56;;;9.85;89.01
71057;BME280;58380;48.312;9.246;2023-05-25T05:46:54;93857.00;;;9.57;90.27
71057;BME280;58380;48.312;9.246;2023-05-25T05:49:25;93877.84;;;9.81;91.31
71057;BME280;58380;48.312;9.246;2023-05-25T05:51:51;93887.59;;;9.80;91.35
71057;BME280;58380;48.312;9.246;2023-05-25T05:54:17;93843.78;;;9.52;90.35
71057;BME280;58380;48.312;9.246;2023-05-25T05:56:42;93879.44;;;9.82;91.64
71057;BME280;58380;48.312;9.246;2023-05-25T05:59:10;93894.22;;;9.83;91.65
71057;BME280;58380;48.312;9.246;2023-05-25T06:01:36;93900.97;;;9.74;91.87
71057;BME280;58380;48.312;9.246;2023-05-25T06:04:04;93920.28;;;9.79;93.02
71057;BME280;58380;48.312;9.246;2023-05-25T06:06:30;93860.31;;;9.47;93.29
71057;BME280;58380;48.312;9.246;2023-05-25T06:08:58;93880.72;;;9.57;92.95
71057;BME280;58380;48.312;9.246;2023-05-25T06:11:28;93908.69;;;9.80;92.90
71057;BME280;58380;48.312;9.246;2023-05-25T06:13:54;93907.34;;;9.78;92.93
71057;BME280;58380;48.312;9.246;2023-05-25T06:16:19;93921.19;;;9.90;93.28
71057;BME280;58380;48.312;9.246;2023-05-25T06:18:45;93870.03;;;9.64;93.26
71057;BME280;58380;48.312;9.246;2023-05-25T06:21:10;93904.94;;;9.98;91.63
71057;BME280;58380;48.312;9.246;2023-05-25T06:23:36;93900.38;;;9.88;91.40
71057;BME280;58380;48.312;9.246;2023-05-25T06:26:03;93890.84;;;9.87;93.30
71057;BME280;58380;48.312;9.246;2023-05-25T06:28:30;93911.31;;;10.02;91.75
71057;BME280;58380;48.312;9.246;2023-05-25T06:30:55;93889.38;;;9.97;91.77
71057;BME280;58380;48.312;9.246;2023-05-25T06:33:21;93855.16;;;9.80;92.81
71057;BME280;58380;48.312;9.246;2023-05-25T06:35:47;93915.91;;;10.12;92.01
71057;BME280;58380;48.312;9.246;2023-05-25T06:38:12;93904.00;;;10.09;91.95
71057;BME280;58380;48.312;9.246;2023-05-25T06:40:38;93924.97;;;10.21;92.51
71057;BME280;58380;48.312;9.246;2023-05-25T06:43:03;93904.25;;;10.08;91.84
71057;BME280;58380;48.312;9.246;2023-05-25T06:45:29;93877.75;;;9.98;94.12
71057;BME280;58380;48.312;9.246;2023-05-25T06:47:54;93915.41;;;10.15;92.37
71057;BME280;58380;48.312;9.246;2023-05-25T06:50:20;93918.53;;;10.12;94.15
71057;BME280;58380;48.312;9.246;2023-05-25T06:52:45;93903.34;;;9.97;92.71
71057;BME280;58380;48.312;9.246;2023-05-25T06:55:11;93921.78;;;10.19;95.15
71057;BME280;58380;48.312;9.246;2023-05-25T06:57:36;93901.59;;;10.08;94.23
71057;BME280;58380;48.312;9.246;2023-05-25T07:00:06;93881.41;;;9.91;93.77
71057;BME280;58380;48.312;9.246;2023-05-25T07:02:35;93913.31;;;10.17;94.98
71057;BME280;58380;48.312;9.246;2023-05-25T07:05:01;93941.75;;;10.32;93.82
71057;BME280;58380;48.312;9.246;2023-05-25T07:07:28;93930.63;;;10.30;94.75
71057;BME280;58380;48.312;9.246;2023-05-25T07:09:54;93938.38;;;10.36;93.95
71057;BME280;58380;48.312;9.246;2023-05-25T07:12:19;93874.34;;;9.97;94.78
71057;BME280;58380;48.312;9.246;2023-05-25T07:14:45;93946.38;;;10.47;95.35
71057;BME280;58380;48.312;9.246;2023-05-25T07:17:13;93916.97;;;10.38;94.88
71057;BME280;58380;48.312;9.246;2023-05-25T07:19:39;93933.00;;;10.53;95.72
71057;BME280;58380;48.312;9.246;2023-05-25T07:22:06;93930.63;;;10.57;96.03
71057;BME280;58380;48.312;9.246;2023-05-25T07:24:32;93922.91;;;10.50;94.13
71057;BME280;58380;48.312;9.246;2023-05-25T07:26:57;93935.22;;;10.67;95.42
71057;BME280;58380;48.312;9.246;2023-05-25T07:29:22;93923.97;;;10.49;93.47
71057;BME280;58380;48.312;9.246;2023-05-25T07:31:48;93916.28;;;10.48;94.05
71057;BME280;58380;48.312;9.246;2023-05-25T07:34:13;93916.28;;;10.48;94.31
71057;BME280;58380;48.312;9.246;2023-05-25T07:36:39;93927.81;;;10.64;93.29
71057;BME280;58380;48.312;9.246;2023-05-25T07:39:05;93920.63;;;10.59;93.58
71057;BME280;58380;48.312;9.246;2023-05-25T07:41:30;93888.78;;;10.39;93.91
71057;BME280;58380;48.312;9.246;2023-05-25T07:43:56;93972.91;;;10.89;93.53
71057;BME280;58380;48.312;9.246;2023-05-25T07:46:21;93924.09;;;10.65;92.06
71057;BME280;58380;48.312;9.246;2023-05-25T07:48:49;93952.22;;;10.76;93.95
71057;BME280;58380;48.312;9.246;2023-05-25T07:51:15;93975.59;;;10.94;92.46
71057;BME280;58380;48.312;9.246;2023-05-25T07:53:40;93974.72;;;10.84;93.67
71057;BME280;58380;48.312;9.246;2023-05-25T07:56:06;93958.53;;;10.75;95.15
71057;BME280;58380;48.312;9.246;2023-05-25T07:58:32;93920.00;;;10.47;95.81
71057;BME280;58380;48.312;9.246;2023-05-25T08:00:58;93945.50;;;10.68;93.82
71057;BME280;58380;48.312;9.246;2023-05-25T08:03:23;93904.09;;;10.42;93.30
71057;BME280;58380;48.312;9.246;2023-05-25T08:05:49;93999.66;;;10.98;94.18
71057;BME280;58380;48.312;9.246;2023-05-25T08:08:15;93987.78;;;11.00;94.01
71057;BME280;58380;48.312;9.246;2023-05-25T08:10:40;93979.81;;;10.95;93.48
71057;BME280;58380;48.312;9.246;2023-05-25T08:13:06;93990.19;;;11.02;93.74
71057;BME280;58380;48.312;9.246;2023-05-25T08:15:31;93942.16;;;10.78;92.24
71057;BME280;58380;48.312;9.246;2023-05-25T08:17:57;93928.22;;;10.83;92.28
71057;BME280;58380;48.312;9.246;2023-05-25T08:20:22;93996.59;;;11.43;91.17
71057;BME280;58380;48.312;9.246;2023-05-25T08:22:49;93987.06;;;11.42;92.31
71057;BME280;58380;48.312;9.246;2023-05-25T08:25:18;93977.03;;;11.44;89.46
71057;BME280;58380;48.312;9.246;2023-05-25T08:27:43;93990.16;;;11.72;91.37
71057;BME280;58380;48.312;9.246;2023-05-25T08:30:09;93985.69;;;11.72;89.79
71057;BME280;58380;48.312;9.246;2023-05-25T08:32:35;93987.44;;;11.99;90.28
71057;BME280;58380;48.312;9.246;2023-05-25T08:35:01;93931.78;;;11.83;90.68
71057;BME280;58380;48.312;9.246;2023-05-25T08:37:27;93975.84;;;12.10;87.34
71057;BME280;58380;48.312;9.246;2023-05-25T08:39:53;93991.75;;;12.20;87.59
71057;BME280;58380;48.312;9.246;2023-05-25T08:42:19;93924.94;;;11.87;87.71
71057;BME280;58380;48.312;9.246;2023-05-25T08:44:44;93979.41;;;12.41;86.74
71057;BME280;58380;48.312;9.246;2023-05-25T08:47:11;93977.59;;;12.52;88.75
71057;BME280;58380;48.312;9.246;2023-05-25T08:49:39;93980.78;;;12.64;85.39
71057;BME280;58380;48.312;9.246;2023-05-25T08:52:09;93923.25;;;12.29;85.03
71057;BME280;58380;48.312;9.246;2023-05-25T08:54:37;93957.75;;;12.70;84.67
71057;BME280;58380;48.312;9.246;2023-05-25T08:57:19;93980.84;;;12.90;85.19
71057;BME280;58380;48.312;9.246;2023-05-25T08:59:52;93988.81;;;13.10;84.38
71057;BME280;58380;48.312;9.246;2023-05-25T09:02:38;93969.75;;;12.98;83.37
71057;BME280;58380;48.312;9.246;2023-05-25T09:05:14;93967.34;;;12.97;83.45
71057;BME280;58380;48.312;9.246;2023-05-25T09:07:43;93964.16;;;13.05;83.07
71057;BME280;58380;48.312;9.246;2023-05-25T09:10:10;93989.13;;;13.29;83.04
71057;BME280;58380;48.312;9.246;2023-05-25T09:12:37;93983.81;;;13.29;84.07
71057;BME280;58380;48.312;9.246;2023-05-25T09:15:03;94011.13;;;13.55;83.40
71057;BME280;58380;48.312;9.246;2023-05-25T09:17:29;94002.34;;;13.50;81.21
71057;BME280;58380;48.312;9.246;2023-05-25T09:19:54;94007.63;;;13.70;82.65
71057;BME280;58380;48.312;9.246;2023-05-25T09:22:20;93965.25;;;13.40;80.88
71057;BME280;58380;48.312;9.246;2023-05-25T09:24:46;94009.78;;;13.78;83.31
71057;BME280;58380;48.312;9.246;2023-05-25T09:27:17;94002.59;;;13.84;82.38
71057;BME280;58380;48.312;9.246;2023-05-25T09:29:48;94004.38;;;14.14;83.28
71057;BME280;58380;48.312;9.246;2023-05-25T09:32:16;94009.88;;;14.38;76.78
71057;BME280;58380;48.312;9.246;2023-05-25T09:34:43;94030.00;;;14.50;81.27
71057;BME280;58380;48.312;9.246;2023-05-25T09:37:14;93992.66;;;14.31;77.83
71057;BME280;58380;48.312;9.246;2023-05-25T09:39:41;94033.19;;;14.57;76.33
71057;BME280;58380;48.312;9.246;2023-05-25T09:42:08;94013.81;;;14.51;76.79
71057;BME280;58380;48.312;9.246;2023-05-25T09:44:38;93984.72;;;14.10;77.47
71057;BME280;58380;48.312;9.246;2023-05-25T09:47:04;94035.88;;;14.41;73.98
71057;BME280;58380;48.312;9.246;2023-05-25T09:49:30;94016.56;;;14.26;77.32
71057;BME280;58380;48.312;9.246;2023-05-25T09:51:56;94039.06;;;14.54;79.46
71057;BME280;58380;48.312;9.246;2023-05-25T09:54:22;93995.25;;;14.41;78.12
71057;BME280;58380;48.312;9.246;2023-05-25T09:56:47;94030.38;;;14.87;79.59
71057;BME280;58380;48.312;9.246;2023-05-25T09:59:13;94020.56;;;14.88;74.16
71057;BME280;58380;48.312;9.246;2023-05-25T10:01:40;94044.44;;;14.98;77.57
71057;BME280;58380;48.312;9.246;2023-05-25T10:04:05;94018.94;;;14.92;75.71
71057;BME280;58380;48.312;9.246;2023-05-25T10:06:32;94032.34;;;15.16;75.56
71057;BME280;58380;48.312;9.246;2023-05-25T10:09:02;94011.13;;;15.11;74.88
71057;BME280;58380;48.312;9.246;2023-05-25T10:11:32;94024.03;;;15.28;74.54
71057;BME280;58380;48.312;9.246;2023-05-25T10:14:05;93985.69;;;14.95;72.54
71057;BME280;58380;48.312;9.246;2023-05-25T10:16:33;93996.66;;;14.88;75.05
71057;BME280;58380;48.312;9.246;2023-05-25T10:21:54;94052.28;;;15.19;73.23
71057;BME280;58380;48.312;9.246;2023-05-25T10:24:56;94032.34;;;15.16;72.37
71057;BME280;58380;48.312;9.246;2023-05-25T10:27:46;94032.25;;;15.31;74.53
71057;BME280;58380;48.312;9.246;2023-05-25T10:30:15;94029.91;;;15.59;74.69
71057;BME280;58380;48.312;9.246;2023-05-25T10:32:41;94055.28;;;15.86;72.54
71057;BME280;58380;48.312;9.246;2023-05-25T10:35:08;94047.97;;;15.62;70.33
71057;BME280;58380;48.312;9.246;2023-05-25T10:37:35;94002.19;;;15.31;72.02
71057;BME280;58380;48.312;9.246;2023-05-25T10:40:05;94051.97;;;15.60;72.77
71057;BME280;58380;48.312;9.246;2023-05-25T10:42:36;94005.53;;;15.13;70.83
71057;BME280;58380;48.312;9.246;2023-05-25T10:45:07;94069.72;;;15.40;74.34
71057;BME280;58380;48.312;9.246;2023-05-25T10:47:38;94053.56;;;15.26;71.69
71057;BME280;58380;48.312;9.246;2023-05-25T10:50:18;94064.94;;;15.32;73.26
71057;BME280;58380;48.312;9.246;2023-05-25T10:53:10;94063.06;;;15.38;74.86
71057;BME280;58380;48.312;9.246;2023-05-25T10:55:42;94003.44;;;15.04;73.31
71057;BME280;58380;48.312;9.246;2023-05-25T10:58:15;94067.00;;;15.45;74.44
71057;BME280;58380;48.312;9.246;2023-05-25T11:00:42;94073.69;;;15.43;71.77
71057;BME280;58380;48.312;9.246;2023-05-25T11:03:22;94057.38;;;15.89;76.66
71057;BME280;58380;48.312;9.246;2023-05-25T11:06:07;94033.25;;;16.04;72.12
71057;BME280;58380;48.312;9.246;2023-05-25T11:08:56;94064.63;;;16.36;77.41
71057;BME280;58380;48.312;9.246;2023-05-25T11:17:17;94068.94;;;15.74;73.00
71057;BME280;58380;48.312;9.246;2023-05-25T11:24:56;94080.34;;;16.62;68.67
71057;BME280;58380;48.312;9.246;2023-05-25T11:27:27;94073.31;;;16.71;70.30
71057;BME280;58380;48.312;9.246;2023-05-25T11:29:55;94072.19;;;16.77;69.31
71057;BME280;58380;48.312;9.246;2023-05-25T11:32:22;94054.97;;;16.65;68.74
71057;BME280;58380;48.312;9.246;2023-05-25T11:34:53;94041.63;;;16.46;71.44
71057;BME280;58380;48.312;9.246;2023-05-25T11:37:22;94041.50;;;16.32;70.75
71057;BME280;58380;48.312;9.246;2023-05-25T11:39:55;94057.31;;;16.71;73.37
71057;BME280;58380;48.312;9.246;2023-05-25T11:42:22;94078.84;;;16.80;70.54
71057;BME280;58380;48.312;9.246;2023-05-25T11:44:48;94084.53;;;16.92;70.99
71057;BME280;58380;48.312;9.246;2023-05-25T11:47:15;94051.31;;;16.60;67.50
71057;BME280;58380;48.312;9.246;2023-05-25T11:49:46;94059.19;;;16.47;71.11
71057;BME280;58380;48.312;9.246;2023-05-25T11:52:18;94074.66;;;16.69;70.35
71057;BME280;58380;48.312;9.246;2023-05-25T11:54:44;94045.00;;;16.27;70.04
71057;BME280;58380;48.312;9.246;2023-05-25T11:57:18;94075.84;;;16.33;70.53
71057;BME280;58380;48.312;9.246;2023-05-25T12:02:18;94054.88;;;16.03;72.26
71057;BME280;58380;48.312;9.246;2023-05-25T12:04:59;94082.50;;;16.36;69.67
71057;BME280;58380;48.312;9.246;2023-05-25T12:07:27;94054.66;;;16.23;70.40
71057;BME280;58380;48.312;9.246;2023-05-25T12:10:10;94080.56;;;16.42;67.88
71057;BME280;58380;48.312;9.246;2023-05-25T12:12:42;94084.47;;;16.73;70.28
71057;BME280;58380;48.312;9.246;2023-05-25T12:15:16;94083.44;;;17.17;69.91
71057;BME280;58380;48.312;9.246;2023-05-25T12:17:45;94068.19;;;16.99;68.72
71057;BME280;58380;48.312;9.246;2023-05-25T12:20:13;94075.09;;;16.81;68.11
71057;BME280;58380;48.312;9.246;2023-05-25T12:22:41;94088.34;;;16.62;64.80
71057;BME280;58380;48.312;9.246;2023-05-25T12:25:08;94073.41;;;16.37;70.26
71057;BME280;58380;48.312;9.246;2023-05-25T12:27:35;94076.53;;;16.44;67.80
71057;BME280;58380;48.312;9.246;2023-05-25T12:30:02;94083.47;;;16.69;71.36
71057;BME280;58380;48.312;9.246;2023-05-25T12:32:29;94082.09;;;16.96;70.22
71057;BME280;58380;48.312;9.246;2023-05-25T12:35:05;94067.75;;;16.92;67.07
71057;BME280;58380;48.312;9.246;2023-05-25T12:37:31;94075.31;;;16.85;69.97
71057;BME280;58380;48.312;9.246;2023-05-25T12:39:57;94059.47;;;16.93;70.96
71057;BME280;58380;48.312;9.246;2023-05-25T12:42:23;94082.25;;;17.04;70.84
71057;BME280;58380;48.312;9.246;2023-05-25T12:44:55;94093.34;;;16.93;69.84
71057;BME280;58380;48.312;9.246;2023-05-25T12:47:22;94052.31;;;16.65;67.60
71057;BME280;58380;48.312;9.246;2023-05-25T12:49:50;94083.06;;;16.57;69.68
71057;BME280;58380;48.312;9.246;2023-05-25T12:52:39;94073.25;;;16.28;69.34
71057;BME280;58380;48.312;9.246;2023-05-25T12:55:27;94085.72;;;16.33;71.57
71057;BME280;58380;48.312;9.246;2023-05-25T13:00:24;94096.22;;;16.48;70.98
71057;BME280;58380;48.312;9.246;2023-05-25T13:02:52;94079.53;;;16.61;69.88
71057;BME280;58380;48.312;9.246;2023-05-25T13:05:26;94083.53;;;16.88;69.62
71057;BME280;58380;48.312;9.246;2023-05-25T13:07:57;94084.44;;;16.78;68.29
71057;BME280;58380;48.312;9.246;2023-05-25T13:10:24;94075.13;;;16.76;67.51
71057;BME280;58380;48.312;9.246;2023-05-25T13:12:50;94090.09;;;16.96;70.10
71057;BME280;58380;48.312;9.246;2023-05-25T13:15:18;94060.19;;;16.80;70.47
71057;BME280;58380;48.312;9.246;2023-05-25T13:17:47;94089.09;;;16.92;67.10
71057;BME280;58380;48.312;9.246;2023-05-25T13:20:15;94084.53;;;16.92;69.49
71057;BME280;58380;48.312;9.246;2023-05-25T13:22:43;94046.00;;;17.03;70.77
71057;BME280;58380;48.312;9.246;2023-05-25T13:25:10;94066.47;;;17.46;71.82
71057;BME280;58380;48.312;9.246;2023-05-25T13:27:41;94002.97;;;17.10;64.75
71057;BME280;58380;48.312;9.246;2023-05-25T13:30:09;94006.19;;;17.45;70.24
71057;BME280;58380;48.312;9.246;2023-05-25T13:32:36;94026.03;;;17.91;65.39
71057;BME280;58380;48.312;9.246;2023-05-25T13:35:02;94015.06;;;18.06;63.74
71057;BME280;58380;48.312;9.246;2023-05-25T13:37:29;94054.31;;;18.38;65.01
71057;BME280;58380;48.312;9.246;2023-05-25T13:39:57;94066.59;;;18.53;63.43
71057;BME280;58380;48.312;9.246;2023-05-25T13:42:23;94055.88;;;18.39;60.30
71057;BME280;58380;48.312;9.246;2023-05-25T13:44:49;93969.22;;;17.52;65.03
71057;BME280;58380;48.312;9.246;2023-05-25T13:47:14;94044.13;;;17.94;62.22
71057;BME280;58380;48.312;9.246;2023-05-25T13:49:40;94037.13;;;17.98;64.09
71057;BME280;58380;48.312;9.246;2023-05-25T13:52:05;94057.75;;;18.39;65.42
71057;BME280;58380;48.312;9.246;2023-05-25T13:54:32;94050.94;;;18.46;59.07
71057;BME280;58380;48.312;9.246;2023-05-25T13:56:57;94059.28;;;18.72;65.11
71057;BME280;58380;48.312;9.246;2023-05-25T13:59:23;94045.59;;;18.32;61.98
71057;BME280;58380;48.312;9.246;2023-05-25T14:01:48;94028.34;;;18.11;63.62
71057;BME280;58380;48.312;9.246;2023-05-25T14:04:14;94043.28;;;18.12;65.97
71057;BME280;58380;48.312;9.246;2023-05-25T14:06:40;94069.00;;;18.08;64.61
71057;BME280;58380;48.312;9.246;2023-05-25T14:09:06;94059.03;;;17.81;62.30
71057;BME280;58380;48.312;9.246;2023-05-25T14:11:32;94046.34;;;18.05;64.67
71057;BME280;58380;48.312;9.246;2023-05-25T14:13:58;94061.03;;;18.63;62.87
71057;BME280;58380;48.312;9.246;2023-05-25T14:16:23;94047.97;;;18.89;60.53
71057;BME280;58380;48.312;9.246;2023-05-25T14:18:49;94041.84;;;18.61;60.53
71057;BME280;58380;48.312;9.246;2023-05-25T14:21:14;94046.22;;;18.57;61.10
71057;BME280;58380;48.312;9.246;2023-05-25T14:23:40;94002.94;;;18.27;62.46
71057;BME280;58380;48.312;9.246;2023-05-25T14:26:05;94054.28;;;18.52;62.63
71057;BME280;58380;48.312;9.246;2023-05-25T14:28:31;94035.88;;;18.37;63.88
71057;BME280;58380;48.312;9.246;2023-05-25T14:30:56;94032.13;;;18.38;64.87
71057;BME280;58380;48.312;9.246;2023-05-25T14:33:22;94041.72;;;18.25;62.36
71057;BME280;58380;48.312;9.246;2023-05-25T14:35:47;94045.47;;;18.10;65.35
71057;BME280;58380;48.312;9.246;2023-05-25T14:38:13;94024.50;;;17.84;66.11
71057;BME280;58380;48.312;9.246;2023-05-25T14:40:38;94031.88;;;17.93;66.14
71057;BME280;58380;48.312;9.246;2023-05-25T14:43:03;94060.38;;;17.97;64.68
71057;BME280;58380;48.312;9.246;2023-05-25T14:45:29;94061.16;;;17.98;63.79
71057;BME280;58380;48.312;9.246;2023-05-25T14:47:54;94037.59;;;17.86;63.75
71057;BME280;58380;48.312;9.246;2023-05-25T14:50:20;94053.03;;;17.89;63.11
71057;BME280;58380;48.312;9.246;2023-05-25T14:52:46;94052.69;;;18.23;63.66
71057;BME280;58380;48.312;9.246;2023-05-25T14:55:11;94045.84;;;18.78;61.24
71057;BME280;58380;48.312;9.246;2023-05-25T14:57:37;94037.53;;;19.15;60.77
71057;BME280;58380;48.312;9.246;2023-05-25T15:00:02;94048.34;;;19.47;59.24
71057;BME280;58380;48.312;9.246;2023-05-25T15:02:28;94040.50;;;19.50;59.20
71057;BME280;58380;48.312;9.246;2023-05-25T15:04:54;94056.53;;;19.87;57.08
71057;BME280;58380;48.312;9.246;2023-05-25T15:07:20;94035.72;;;19.83;56.60
71057;BME280;58380;48.312;9.246;2023-05-25T15:09:46;94031.94;;;20.07;57.49
71057;BME280;58380;48.312;9.246;2023-05-25T15:12:12;94031.50;;;20.14;58.76
71057;BME280;58380;48.312;9.246;2023-05-25T15:14:38;94062.44;;;20.20;54.20
71057;BME280;58380;48.312;9.246;2023-05-25T15:17:05;94059.09;;;20.45;56.36
71057;BME280;58380;48.312;9.246;2023-05-25T15:19:31;94062.03;;;20.35;55.38
71057;BME280;58380;48.312;9.246;2023-05-25T15:21:56;94034.03;;;19.88;55.10
71057;BME280;58380;48.312;9.246;2023-05-25T15:24:22;94058.03;;;19.56;54.51
71057;BME280;58380;48.312;9.246;2023-05-25T15:26:47;94037.00;;;19.86;53.94
71057;BME280;58380;48.312;9.246;2023-05-25T15:29:12;94032.34;;;20.32;55.29
71057;BME280;58380;48.312;9.246;2023-05-25T15:31:38;94052.72;;;20.64;55.03
71057;BME280;58380;48.312;9.246;2023-05-25T15:34:03;94041.69;;;20.65;53.63
71057;BME280;58380;48.312;9.246;2023-05-25T15:36:29;94053.53;;;20.64;52.32
71057;BME280;58380;48.312;9.246;2023-05-25T15:38:55;94054.91;;;20.31;54.91
71057;BME280;58380;48.312;9.246;2023-05-25T15:41:20;94067.59;;;19.85;56.94
71057;BME280;58380;48.312;9.246;2023-05-25T15:43:54;94069.28;;;19.45;57.72
71057;BME280;58380;48.312;9.246;2023-05-25T15:46:25;94036.91;;;18.82;58.66
71057;BME280;58380;48.312;9.246;2023-05-25T15:48:50;94066.75;;;19.26;58.03
71057;BME280;58380;48.312;9.246;2023-05-25T15:51:16;94055.72;;;19.64;57.16
71057;BME280;58380;48.312;9.246;2023-05-25T15:53:41;94066.41;;;20.22;55.88
71057;BME280;58380;48.312;9.246;2023-05-25T15:56:06;94064.09;;;20.38;53.08
71057;BME280;58380;48.312;9.246;2023-05-25T15:58:32;94053.66;;;20.59;52.73
71057;BME280;58380;48.312;9.246;2023-05-25T16:00:59;94054.03;;;20.75;52.83
71057;BME280;58380;48.312;9.246;2023-05-25T16:03:25;94041.44;;;20.84;53.19
71057;BME280;58380;48.312;9.246;2023-05-25T16:05:50;94015.97;;;20.64;52.08
71057;BME280;58380;48.312;9.246;2023-05-25T16:08:16;94054.88;;;20.93;52.79
71057;BME280;58380;48.312;9.246;2023-05-25T16:10:41;94044.22;;;20.71;53.56
71057;BME280;58380;48.312;9.246;2023-05-25T16:13:06;94054.50;;;20.77;54.45
71057;BME280;58380;48.312;9.246;2023-05-25T16:15:32;94029.72;;;20.09;53.10
71057;BME280;58380;48.312;9.246;2023-05-25T16:17:58;94058.31;;;19.91;55.15
71057;BME280;58380;48.312;9.246;2023-05-25T16:20:25;94041.03;;;19.38;56.12
71057;BME280;58380;48.312;9.246;2023-05-25T16:22:50;94067.97;;;19.20;57.09
71057;BME280;58380;48.312;9.246;2023-05-25T16:25:16;94038.16;;;19.12;58.33
71057;BME280;58380;48.312;9.246;2023-05-25T16:27:41;94066.88;;;19.57;59.23
71057;BME280;58380;48.312;9.246;2023-05-25T16:30:07;94074.97;;;19.66;59.24
71057;BME280;58380;48.312;9.246;2023-05-25T16:32:32;94070.50;;;19.61;56.40
71057;BME280;58380;48.312;9.246;2023-05-25T16:34:58;94067.22;;;19.64;57.63
71057;BME280;58380;48.312;9.246;2023-05-25T16:37:23;94017.59;;;18.85;55.82
71057;BME280;58380;48.312;9.246;2023-05-25T16:39:48;94074.31;;;19.10;57.89
71057;BME280;58380;48.312;9.246;2023-05-25T16:42:14;94057.69;;;18.99;59.23
71057;BME280;58380;48.312;9.246;2023-05-25T16:44:39;94076.13;;;18.87;57.64
71057;BME280;58380;48.312;9.246;2023-05-25T16:47:05;94045.22;;;18.81;57.67
71057;BME280;58380;48.312;9.246;2023-05-25T16:49:30;94035.41;;;18.76;59.43
71057;BME280;58380;48.312;9.246;2023-05-25T16:51:55;94071.97;;;18.81;58.93
71057;BME280;58380;48.312;9.246;2023-05-25T16:54:21;94040.16;;;18.51;60.76
71057;BME280;58380;48.312;9.246;2023-05-25T16:56:46;94038.06;;;18.48;61.87
71057;BME280;58380;48.312;9.246;2023-05-25T16:59:12;94018.06;;;18.32;61.94
71057;BME280;58380;48.312;9.246;2023-05-25T17:01:37;94067.66;;;18.52;60.33
71057;BME280;58380;48.312;9.246;2023-05-25T17:04:03;94052.41;;;18.39;60.97
71057;BME280;58380;48.312;9.246;2023-05-25T17:06:28;94038.06;;;18.21;61.96
71057;BME280;58380;48.312;9.246;2023-05-25T17:08:53;94065.19;;;18.28;61.63
71057;BME280;58380;48.312;9.246;2023-05-25T17:11:19;94029.53;;;18.05;62.00
71057;BME280;58380;48.312;9.246;2023-05-25T17:13:50;94056.56;;;18.17;62.32
71057;BME280;58380;48.312;9.246;2023-05-25T17:16:15;94051.00;;;18.14;61.00
71057;BME280;58380;48.312;9.246;2023-05-25T17:18:41;94059.69;;;18.05;61.33
71057;BME280;58380;48.312;9.246;2023-05-25T17:21:06;94021.19;;;17.93;61.37
71057;BME280;58380;48.312;9.246;2023-05-25T17:23:32;94054.63;;;18.04;62.48
71057;BME280;58380;48.312;9.246;2023-05-25T17:25:57;94041.91;;;17.82;61.45
71057;BME280;58380;48.312;9.246;2023-05-25T17:28:22;94061.72;;;17.81;61.47
71057;BME280;58380;48.312;9.246;2023-05-25T17:30:49;94078.16;;;17.88;63.60
71057;BME280;58380;48.312;9.246;2023-05-25T17:33:14;94031.84;;;17.60;62.34
71057;BME280;58380;48.312;9.246;2023-05-25T17:35:40;94077.28;;;17.74;61.11
71057;BME280;58380;48.312;9.246;2023-05-25T17:38:05;94080.03;;;17.68;62.04
71057;BME280;58380;48.312;9.246;2023-05-25T17:40:31;94061.06;;;17.51;63.54
71057;BME280;58380;48.312;9.246;2023-05-25T17:42:56;94067.28;;;17.46;63.80
71057;BME280;58380;48.312;9.246;2023-05-25T17:45:21;94074.28;;;17.42;62.80
71057;BME280;58380;48.312;9.246;2023-05-25T17:47:47;94067.94;;;17.38;63.46
71057;BME280;58380;48.312;9.246;2023-05-25T17:50:12;94074.19;;;17.29;63.20
71057;BME280;58380;48.312;9.246;2023-05-25T17:52:38;94075.28;;;17.28;63.71
71057;BME280;58380;48.312;9.246;2023-05-25T17:55:04;94085.66;;;17.29;64.42
71057;BME280;58380;48.312;9.246;2023-05-25T17:57:31;94066.41;;;17.13;64.49
71057;BME280;58380;48.312;9.246;2023-05-25T17:59:56;94068.91;;;17.04;62.63
71057;BME280;58380;48.312;9.246;2023-05-25T18:02:21;94091.59;;;17.26;63.29
71057;BME280;58380;48.312;9.246;2023-05-25T18:04:47;94071.31;;;17.06;64.61
71057;BME280;58380;48.312;9.246;2023-05-25T18:07:12;94092.16;;;17.23;64.68
71057;BME280;58380;48.312;9.246;2023-05-25T18:09:38;94077.72;;;17.05;65.68
71057;BME280;58380;48.312;9.246;2023-05-25T18:12:03;94109.88;;;17.14;63.83
71057;BME280;58380;48.312;9.246;2023-05-25T18:14:29;94067.22;;;16.90;64.22
71057;BME280;58380;48.312;9.246;2023-05-25T18:16:59;94088.47;;;17.00;65.48
71057;BME280;58380;48.312;9.246;2023-05-25T18:19:25;94054.91;;;16.70;65.77
71057;BME280;58380;48.312;9.246;2023-05-25T18:21:50;94098.75;;;16.88;64.11
71057;BME280;58380;48.312;9.246;2023-05-25T18:24:15;94064.06;;;16.64;64.53
71057;BME280;58380;48.312;9.246;2023-05-25T18:26:41;94105.09;;;16.92;65.42
71057;BME280;58380;48.312;9.246;2023-05-25T18:29:07;94084.75;;;16.72;66.39
71057;BME280;58380;48.312;9.246;2023-05-25T18:31:33;94120.34;;;16.86;67.82
71057;BME280;58380;48.312;9.246;2023-05-25T18:33:59;94078.53;;;16.57;67.49
71057;BME280;58380;48.312;9.246;2023-05-25T18:36:24;94111.19;;;16.68;68.36